createdAt,value
2019-01-31T00:01:48.754Z,11.30
2019-01-31T00:05:05.055Z,11.57
2019-01-31T00:08:45.949Z,11.30
2019-01-31T00:12:23.373Z,12.13
2019-01-31T00:16:08.004Z,11.87
2019-01-31T00:20:03.815Z,11.87
2019-01-31T00:23:47.808Z,11.27
2019-01-31T00:27:17.608Z,11.67
2019-01-31T00:31:11.720Z,11.37
2019-01-31T00:34:54.077Z,12.57
2019-01-31T00:38:28.360Z,11.60
2019-01-31T00:42:14.953Z,11.83
2019-01-31T00:45:43.736Z,13.23
2019-01-31T00:49:11.828Z,12.33
2019-01-31T00:52:42.712Z,13.57
2019-01-31T00:55:55.589Z,12.87
2019-01-31T00:59:21.197Z,13.17
2019-01-31T01:02:42.208Z,12.57
2019-01-31T01:06:21.065Z,13.80
2019-01-31T01:09:48.928Z,12.17
2019-01-31T01:13:27.130Z,13.30
2019-01-31T01:17:05.806Z,13.20
2019-01-31T01:20:35.589Z,12.60
2019-01-31T01:24:18.518Z,13.90
2019-01-31T01:27:46.887Z,12.70
2019-01-31T01:31:22.363Z,12.80
2019-01-31T01:35:15.609Z,15.30
2019-01-31T01:38:58.662Z,14.00
2019-01-31T01:42:43.414Z,13.60
2019-01-31T01:46:23.640Z,14.90
2019-01-31T01:49:37.549Z,15.23
2019-01-31T01:53:09.788Z,15.40
2019-01-31T01:57:07.849Z,16.63
2019-01-31T02:01:17.499Z,15.30
2019-01-31T02:04:44.562Z,15.77
2019-01-31T02:08:05.683Z,17.40
2019-01-31T02:11:20.908Z,16.13
2019-01-31T02:14:33.784Z,16.20
2019-01-31T02:17:56.533Z,16.77
2019-01-31T02:21:30.022Z,17.03
2019-01-31T02:24:51.838Z,16.47
2019-01-31T02:28:19.333Z,16.33
2019-01-31T02:31:40.023Z,17.03
2019-01-31T02:35:08.342Z,16.00
2019-01-31T02:38:43.750Z,17.03
2019-01-31T02:42:14.407Z,17.23
2019-01-31T02:45:59.306Z,16.23
2019-01-31T02:49:43.629Z,16.37
2019-01-31T02:53:02.081Z,15.70
2019-01-31T02:56:50.075Z,16.57
2019-01-31T03:00:34.258Z,15.83
2019-01-31T03:04:12.618Z,15.20
2019-01-31T03:07:55.731Z,15.27
2019-01-31T03:11:27.104Z,14.57
2019-01-31T03:14:45.119Z,15.00
2019-01-31T03:18:19.653Z,15.60
2019-01-31T03:22:10.984Z,14.77
2019-01-31T03:25:55.535Z,15.77
2019-01-31T03:29:24.680Z,14.97
2019-01-31T03:32:55.185Z,14.73
2019-01-31T03:36:11.439Z,14.77
2019-01-31T03:39:22.787Z,15.00
2019-01-31T03:42:59.955Z,14.83
2019-01-31T03:46:40.622Z,15.27
2019-01-31T03:50:16.289Z,15.13
2019-01-31T03:53:56.646Z,14.93
2019-01-31T03:57:34.159Z,16.20
2019-01-31T04:01:19.837Z,15.93
2019-01-31T04:04:31.438Z,15.63
2019-01-31T04:07:35.235Z,15.43
2019-01-31T04:10:39.242Z,16.63
2019-01-31T04:13:43.083Z,16.53
2019-01-31T04:16:46.990Z,17.57
2019-01-31T04:19:50.839Z,16.70
2019-01-31T04:22:54.666Z,18.63
2019-01-31T04:25:58.588Z,16.33
2019-01-31T04:29:02.595Z,17.20
2019-01-31T04:32:06.549Z,18.07
2019-01-31T04:35:10.554Z,18.07
2019-01-31T04:38:14.338Z,18.20
2019-01-31T04:41:18.184Z,17.60
2019-01-31T04:44:22.056Z,16.83
2019-01-31T04:47:25.962Z,18.13
2019-01-31T04:50:29.804Z,19.33
2019-01-31T04:53:33.728Z,19.57
2019-01-31T04:56:37.656Z,19.53
2019-01-31T04:59:41.492Z,19.27
2019-01-31T05:02:45.471Z,19.13
2019-01-31T05:05:49.336Z,19.40
2019-01-31T05:08:53.184Z,18.57
2019-01-31T05:11:59.121Z,19.60
2019-01-31T05:15:03.131Z,19.70
2019-01-31T05:18:07.121Z,19.67
2019-01-31T05:21:11.535Z,20.23
2019-01-31T05:24:15.797Z,19.47
2019-01-31T05:27:19.858Z,19.67
2019-01-31T05:30:23.826Z,20.20
2019-01-31T05:33:27.806Z,20.57
2019-01-31T05:36:31.845Z,22.00
2019-01-31T05:39:35.964Z,20.73
2019-01-31T05:42:45.778Z,20.87
2019-01-31T05:45:49.887Z,20.43
2019-01-31T05:48:54.521Z,21.10
2019-01-31T05:51:59.264Z,21.37
2019-01-31T05:55:03.468Z,22.20
2019-01-31T05:58:08.119Z,23.10
2019-01-31T06:01:12.431Z,22.40
2019-01-31T06:04:16.553Z,22.67
2019-01-31T06:07:20.654Z,22.70
2019-01-31T06:10:25.328Z,22.60
2019-01-31T06:13:29.407Z,22.33
2019-01-31T06:16:33.335Z,22.47
2019-01-31T06:19:37.803Z,22.97
2019-01-31T06:22:41.717Z,22.83
2019-01-31T06:25:45.995Z,23.67
2019-01-31T06:28:49.965Z,22.80
2019-01-31T06:31:53.826Z,24.50
2019-01-31T06:34:57.671Z,23.90
2019-01-31T06:38:04.591Z,23.07
2019-01-31T06:41:18.406Z,24.33
2019-01-31T06:44:14.167Z,25.00
2019-01-31T06:47:18.100Z,25.47
2019-01-31T06:50:24.983Z,25.83
2019-01-31T06:53:29.120Z,25.07
2019-01-31T06:56:33.363Z,24.23
2019-01-31T06:59:37.414Z,25.77
2019-01-31T07:02:41.652Z,26.73
2019-01-31T07:05:45.995Z,26.83
2019-01-31T07:08:49.792Z,25.33
2019-01-31T07:11:53.711Z,27.77
2019-01-31T07:14:57.526Z,25.73
2019-01-31T07:18:01.456Z,25.57
2019-01-31T07:21:05.432Z,26.73
2019-01-31T07:24:09.469Z,27.53
2019-01-31T07:27:13.302Z,27.07
2019-01-31T07:30:17.404Z,26.80
2019-01-31T07:33:21.215Z,26.50
2019-01-31T07:36:25.096Z,28.50
2019-01-31T07:39:28.966Z,26.00
2019-01-31T07:42:32.803Z,26.90
2019-01-31T07:45:36.794Z,27.60
2019-01-31T07:48:40.618Z,27.33
2019-01-31T07:51:44.591Z,26.50
2019-01-31T07:54:48.408Z,26.57
2019-01-31T07:57:52.376Z,26.20
2019-01-31T08:00:56.236Z,26.33
2019-01-31T08:04:02.689Z,26.93
2019-01-31T08:07:05.869Z,26.83
2019-01-31T08:10:16.014Z,28.67
2019-01-31T08:13:20.030Z,29.33
2019-01-31T08:16:23.970Z,30.33
2019-01-31T08:19:27.861Z,33.67
2019-01-31T08:22:31.793Z,28.07
2019-01-31T08:25:35.723Z,25.03
2019-01-31T08:28:39.624Z,26.23
2019-01-31T08:31:43.653Z,25.80
2019-01-31T08:34:47.474Z,25.23
2019-01-31T08:37:51.404Z,26.03
2019-01-31T08:40:55.375Z,25.13
2019-01-31T08:43:59.235Z,25.83
2019-01-31T08:47:03.056Z,26.20
2019-01-31T08:50:09.173Z,26.03
2019-01-31T08:53:13.067Z,25.87
2019-01-31T08:56:16.967Z,26.23
2019-01-31T08:59:20.784Z,25.13
2019-01-31T09:02:24.707Z,27.67
2019-01-31T09:05:28.668Z,25.17
2019-01-31T09:08:32.469Z,27.67
2019-01-31T09:11:36.381Z,26.47
2019-01-31T09:14:40.362Z,26.83
2019-01-31T09:17:44.640Z,25.90
2019-01-31T09:20:55.468Z,27.03
2019-01-31T09:24:16.521Z,28.30
2019-01-31T09:27:56.370Z,26.30
2019-01-31T09:31:44.669Z,27.03
2019-01-31T09:35:09.293Z,25.40
2019-01-31T09:38:49.363Z,26.83
2019-01-31T09:42:26.067Z,27.77
2019-01-31T09:45:51.227Z,27.37
2019-01-31T09:49:21.877Z,28.17
2019-01-31T09:52:54.371Z,28.63
2019-01-31T09:56:21.526Z,29.07
2019-01-31T10:00:00.327Z,28.03
2019-01-31T10:03:53.097Z,29.00
2019-01-31T10:07:31.004Z,28.53
2019-01-31T10:11:01.765Z,27.63
2019-01-31T10:14:55.147Z,29.27
2019-01-31T10:18:29.138Z,27.80
2019-01-31T10:21:52.681Z,27.23
2019-01-31T10:25:23.992Z,27.93
2019-01-31T10:29:02.087Z,28.10
2019-01-31T10:32:20.428Z,27.33
2019-01-31T10:35:58.054Z,28.70
2019-01-31T10:39:35.661Z,26.50
2019-01-31T10:42:52.233Z,28.47
2019-01-31T10:46:23.816Z,28.00
2019-01-31T10:50:02.070Z,28.40
2019-01-31T10:53:46.216Z,29.40
2019-01-31T10:57:26.237Z,29.80
2019-01-31T11:00:43.033Z,28.67
2019-01-31T11:04:22.266Z,29.80
2019-01-31T11:07:43.181Z,31.27
2019-01-31T11:11:25.234Z,34.83
2019-01-31T11:14:56.054Z,30.50
2019-01-31T11:18:33.772Z,31.10
2019-01-31T11:22:09.582Z,29.67
2019-01-31T11:25:46.413Z,31.53
2019-01-31T11:29:20.577Z,32.33
2019-01-31T11:33:09.058Z,33.00
2019-01-31T11:36:40.868Z,33.50
2019-01-31T11:40:27.691Z,34.20
2019-01-31T11:44:08.610Z,31.83
2019-01-31T11:47:53.733Z,34.90
2019-01-31T11:51:29.559Z,35.40
2019-01-31T11:55:02.934Z,36.20
2019-01-31T11:58:43.275Z,35.73
2019-01-31T12:01:47.282Z,34.27
2019-01-31T12:04:51.094Z,35.37
2019-01-31T12:07:55.026Z,36.43
2019-01-31T12:10:58.871Z,34.90
2019-01-31T12:14:02.743Z,36.13
2019-01-31T12:17:07.319Z,33.73
2019-01-31T12:20:11.890Z,35.07
2019-01-31T12:23:15.707Z,36.23
2019-01-31T12:26:19.615Z,34.87
2019-01-31T12:29:23.489Z,34.87
2019-01-31T12:32:27.373Z,32.97
2019-01-31T12:35:31.282Z,35.47
2019-01-31T12:38:36.881Z,33.27
2019-01-31T12:41:40.829Z,32.97
2019-01-31T12:44:44.667Z,33.23
2019-01-31T12:47:48.444Z,33.33
2019-01-31T12:50:52.422Z,33.63
2019-01-31T12:53:56.282Z,33.43
2019-01-31T12:57:00.205Z,32.27
2019-01-31T13:00:06.173Z,33.87
2019-01-31T13:03:09.999Z,32.40
2019-01-31T13:06:13.910Z,31.63
2019-01-31T13:09:17.887Z,30.40
2019-01-31T13:12:21.763Z,31.77
2019-01-31T13:15:25.834Z,30.27
2019-01-31T13:18:29.834Z,29.43
2019-01-31T13:21:33.797Z,29.80
2019-01-31T13:24:37.682Z,29.87
2019-01-31T13:27:41.699Z,29.23
2019-01-31T13:30:45.666Z,29.20
2019-01-31T13:33:49.583Z,31.47
2019-01-31T13:36:53.486Z,29.70
2019-01-31T13:39:57.459Z,29.33
2019-01-31T13:43:01.405Z,29.43
2019-01-31T13:46:05.862Z,29.37
2019-01-31T13:49:09.784Z,28.17
2019-01-31T13:52:13.668Z,29.13
2019-01-31T13:55:25.997Z,27.70
2019-01-31T13:58:29.819Z,28.43
2019-01-31T14:01:33.783Z,27.87
2019-01-31T14:04:37.590Z,27.43
2019-01-31T14:07:41.491Z,27.67
2019-01-31T14:10:45.335Z,27.13
2019-01-31T14:13:49.178Z,25.97
2019-01-31T14:16:53.098Z,26.10
2019-01-31T14:19:56.965Z,25.10
2019-01-31T14:23:00.962Z,23.63
2019-01-31T14:26:05.339Z,23.13
2019-01-31T14:29:09.311Z,24.10
2019-01-31T14:32:15.566Z,21.33
2019-01-31T14:35:19.405Z,21.77
2019-01-31T14:38:23.274Z,21.93
2019-01-31T14:41:27.108Z,20.60
2019-01-31T14:44:30.969Z,21.93
2019-01-31T14:47:34.864Z,21.80
2019-01-31T14:50:38.801Z,20.20
2019-01-31T14:53:42.637Z,19.37
2019-01-31T14:56:46.544Z,18.80
2019-01-31T14:59:50.363Z,20.03
2019-01-31T15:02:54.278Z,18.40
2019-01-31T15:05:58.161Z,19.33
2019-01-31T15:09:02.062Z,19.87
2019-01-31T15:12:06.045Z,19.47
2019-01-31T15:15:10.437Z,18.83
2019-01-31T15:18:14.329Z,17.67
2019-01-31T15:21:18.121Z,17.80
2019-01-31T15:24:21.957Z,17.73
2019-01-31T15:27:25.782Z,17.40
2019-01-31T15:30:31.765Z,17.17
2019-01-31T15:33:35.691Z,16.97
2019-01-31T15:36:39.588Z,17.03
2019-01-31T15:39:43.455Z,17.10
2019-01-31T15:42:49.043Z,14.90
2019-01-31T15:45:53.130Z,16.47
2019-01-31T15:48:57.323Z,15.17
2019-01-31T15:52:01.485Z,15.80
2019-01-31T15:55:07.720Z,16.73
2019-01-31T15:58:11.534Z,17.37
2019-01-31T16:01:15.564Z,16.30
2019-01-31T16:04:20.302Z,17.50
2019-01-31T16:07:24.201Z,17.70
2019-01-31T16:10:28.180Z,18.20
2019-01-31T16:13:32.054Z,17.40
2019-01-31T16:16:36.010Z,17.87
2019-01-31T16:19:39.959Z,17.27
2019-01-31T16:22:44.010Z,18.60
2019-01-31T16:25:48.237Z,17.53
2019-01-31T16:28:52.160Z,18.17
2019-01-31T16:31:56.072Z,17.83
2019-01-31T16:35:00.055Z,18.30
2019-01-31T16:38:04.835Z,17.77
2019-01-31T16:41:08.718Z,18.63
2019-01-31T16:44:12.706Z,18.20
2019-01-31T16:47:16.614Z,18.50
2019-01-31T16:50:20.698Z,19.63
2019-01-31T16:53:24.693Z,20.40
2019-01-31T16:56:28.731Z,18.03
2019-01-31T16:59:32.613Z,17.97
2019-01-31T17:02:36.511Z,17.67
2019-01-31T17:05:40.504Z,17.93
2019-01-31T17:08:44.307Z,18.60
2019-01-31T17:11:48.130Z,18.10
2019-01-31T17:14:51.921Z,17.33
2019-01-31T17:17:55.878Z,18.03
2019-01-31T17:20:59.693Z,18.70
2019-01-31T17:24:03.590Z,18.23
2019-01-31T17:27:07.565Z,18.73
2019-01-31T17:30:17.369Z,19.07
2019-01-31T17:33:21.296Z,20.23
2019-01-31T17:36:25.105Z,21.07
2019-01-31T17:39:28.921Z,20.00
2019-01-31T17:42:32.735Z,20.17
2019-01-31T17:45:36.639Z,20.20
2019-01-31T17:48:40.556Z,21.13
2019-01-31T17:51:44.344Z,24.13
2019-01-31T17:54:48.155Z,24.37
2019-01-31T17:57:52.154Z,20.37
2019-01-31T18:00:59.498Z,19.73
2019-01-31T18:04:03.500Z,17.73
2019-01-31T18:07:07.552Z,20.37
2019-01-31T18:10:14.671Z,19.87
2019-01-31T18:13:18.470Z,21.03
2019-01-31T18:16:22.283Z,19.80
2019-01-31T18:19:26.110Z,18.23
2019-01-31T18:22:29.989Z,18.73
2019-01-31T18:25:33.906Z,22.27
2019-01-31T18:28:37.712Z,20.10
2019-01-31T18:31:41.589Z,18.97
2019-01-31T18:34:45.459Z,19.77
2019-01-31T18:37:49.435Z,19.03
2019-01-31T18:40:53.315Z,19.03
2019-01-31T18:43:57.199Z,17.87
2019-01-31T18:47:01.063Z,19.60
2019-01-31T18:50:07.321Z,19.87
2019-01-31T18:53:11.245Z,19.67
2019-01-31T18:56:15.197Z,19.43
2019-01-31T18:59:19.105Z,17.87
2019-01-31T19:02:22.983Z,20.70
2019-01-31T19:05:27.046Z,18.33
2019-01-31T19:08:30.952Z,18.47
2019-01-31T19:11:34.756Z,18.00
2019-01-31T19:14:38.577Z,18.23
2019-01-31T19:17:42.435Z,17.93
2019-01-31T19:20:46.387Z,18.53
2019-01-31T19:23:50.253Z,20.63
2019-01-31T19:26:54.183Z,21.27
2019-01-31T19:29:58.760Z,16.90
2019-01-31T19:33:02.860Z,16.33
2019-01-31T19:36:06.876Z,15.63
2019-01-31T19:39:15.755Z,16.00
2019-01-31T19:42:22.669Z,16.03
2019-01-31T19:45:27.924Z,15.63
2019-01-31T19:48:31.733Z,15.37
2019-01-31T19:51:35.698Z,16.23
2019-01-31T19:54:39.538Z,15.83
2019-01-31T19:57:43.411Z,15.87
2019-01-31T20:00:47.386Z,15.13
2019-01-31T20:03:52.610Z,15.27
2019-01-31T20:07:00.975Z,17.10
2019-01-31T20:10:06.729Z,15.50
2019-01-31T20:13:13.090Z,14.90
2019-01-31T20:16:28.656Z,14.87
2019-01-31T20:19:26.572Z,15.43
2019-01-31T20:22:34.427Z,13.90
2019-01-31T20:25:38.491Z,14.53
2019-01-31T20:28:42.369Z,16.03
2019-01-31T20:31:46.165Z,16.83
2019-01-31T20:34:50.149Z,16.27
2019-01-31T20:37:54.201Z,15.80
2019-01-31T20:40:59.108Z,15.57
2019-01-31T20:44:03.029Z,15.70
2019-01-31T20:47:07.006Z,14.57
2019-01-31T20:50:22.981Z,15.27
2019-01-31T20:53:26.983Z,15.17
2019-01-31T20:56:33.515Z,14.13
2019-01-31T20:59:36.472Z,15.20
2019-01-31T21:02:40.493Z,15.37
2019-01-31T21:05:44.678Z,14.43
2019-01-31T21:08:48.564Z,15.03
2019-01-31T21:11:52.449Z,14.87
2019-01-31T21:14:56.342Z,14.63
2019-01-31T21:18:00.310Z,14.50
2019-01-31T21:21:05.391Z,15.27
2019-01-31T21:24:09.618Z,15.87
2019-01-31T21:27:13.796Z,14.83
2019-01-31T21:30:25.685Z,15.20
2019-01-31T21:33:29.517Z,14.80
2019-01-31T21:36:33.479Z,14.50
2019-01-31T21:39:37.435Z,14.63
2019-01-31T21:42:41.331Z,14.47
2019-01-31T21:45:45.413Z,14.37
2019-01-31T21:48:49.286Z,14.13
2019-01-31T21:51:53.520Z,13.47
2019-01-31T21:54:57.410Z,13.83
2019-01-31T21:58:01.289Z,13.83
2019-01-31T22:01:05.188Z,14.30
2019-01-31T22:04:09.005Z,14.40
2019-01-31T22:07:12.833Z,14.27
2019-01-31T22:10:18.502Z,13.53
2019-01-31T22:13:22.433Z,14.37
2019-01-31T22:16:26.326Z,14.10
2019-01-31T22:19:30.295Z,15.30
2019-01-31T22:22:34.191Z,13.87
2019-01-31T22:25:38.054Z,13.57
2019-01-31T22:28:41.893Z,14.53
2019-01-31T22:31:45.765Z,15.07
2019-01-31T22:34:49.689Z,14.50
2019-01-31T22:37:53.919Z,15.10
2019-01-31T22:40:57.827Z,13.77
2019-01-31T22:44:01.750Z,16.43
2019-01-31T22:47:05.626Z,15.07
2019-01-31T22:50:11.527Z,16.47
2019-01-31T22:53:15.347Z,13.83
2019-01-31T22:56:19.227Z,15.03
2019-01-31T22:59:23.104Z,15.57
2019-01-31T23:02:27.263Z,15.63
2019-01-31T23:05:31.336Z,16.73
2019-01-31T23:08:35.217Z,17.07
2019-01-31T23:11:39.191Z,16.03
2019-01-31T23:14:43.056Z,16.57
2019-01-31T23:17:46.979Z,16.57
2019-01-31T23:20:50.821Z,16.70
2019-01-31T23:23:54.609Z,16.13
2019-01-31T23:26:58.415Z,17.20
2019-01-31T23:30:02.318Z,17.20
2019-01-31T23:33:06.241Z,17.00
2019-01-31T23:36:10.212Z,16.77
2019-01-31T23:39:14.144Z,17.47
2019-01-31T23:42:18.042Z,17.50
2019-01-31T23:45:21.995Z,16.50
2019-01-31T23:48:25.899Z,18.73
2019-01-31T23:51:29.865Z,17.03
2019-01-31T23:54:33.766Z,18.10
2019-01-31T23:57:37.751Z,17.90
